sensor_id;sensor_type;location;lat;lon;timestamp;P1;durP1;ratioP1;P2;durP2;ratioP2
25365;SDS011;13315;48.274;-1.900;2023-03-14T00:02:19;2.72;;;2.58;;
25365;SDS011;13315;48.274;-1.900;2023-03-14T00:04:45;2.80;;;2.38;;
25365;SDS011;13315;48.274;-1.900;2023-03-14T00:07:11;3.45;;;2.67;;
25365;SDS011;13315;48.274;-1.900;2023-03-14T00:09:38;5.45;;;2.95;;
25365;SDS011;13315;48.274;-1.900;2023-03-14T00:12:04;5.85;;;3.08;;
25365;SDS011;13315;48.274;-1.900;2023-03-14T00:14:32;3.10;;;2.85;;
25365;SDS011;13315;48.274;-1.900;2023-03-14T00:16:58;4.15;;;2.72;;
25365;SDS011;13315;48.274;-1.900;2023-03-14T00:19:24;7.35;;;2.67;;
25365;SDS011;13315;48.274;-1.900;2023-03-14T00:21:50;8.95;;;2.67;;
25365;SDS011;13315;48.274;-1.900;2023-03-14T00:24:16;2.95;;;2.30;;
25365;SDS011;13315;48.274;-1.900;2023-03-14T00:26:42;4.25;;;2.22;;
25365;SDS011;13315;48.274;-1.900;2023-03-14T00:29:08;2.20;;;2.10;;
25365;SDS011;13315;48.274;-1.900;2023-03-14T00:31:34;2.40;;;2.20;;
25365;SDS011;13315;48.274;-1.900;2023-03-14T00:34:01;2.10;;;2.00;;
25365;SDS011;13315;48.274;-1.900;2023-03-14T00:36:27;7.03;;;2.63;;
25365;SDS011;13315;48.274;-1.900;2023-03-14T00:38:53;4.82;;;2.20;;
25365;SDS011;13315;48.274;-1.900;2023-03-14T00:41:21;2.40;;;2.30;;
25365;SDS011;13315;48.274;-1.900;2023-03-14T00:43:50;2.42;;;2.33;;
25365;SDS011;13315;48.274;-1.900;2023-03-14T00:46:16;2.60;;;2.50;;
25365;SDS011;13315;48.274;-1.900;2023-03-14T00:48:44;3.78;;;2.70;;
25365;SDS011;13315;48.274;-1.900;2023-03-14T00:51:10;4.07;;;2.83;;
25365;SDS011;13315;48.274;-1.900;2023-03-14T00:53:39;3.42;;;3.22;;
25365;SDS011;13315;48.274;-1.900;2023-03-14T00:56:06;3.40;;;3.20;;
25365;SDS011;13315;48.274;-1.900;2023-03-14T00:58:32;3.00;;;2.90;;
25365;SDS011;13315;48.274;-1.900;2023-03-14T01:00:58;3.13;;;2.92;;
25365;SDS011;13315;48.274;-1.900;2023-03-14T01:03:24;2.97;;;2.75;;
25365;SDS011;13315;48.274;-1.900;2023-03-14T01:05:50;4.95;;;3.00;;
25365;SDS011;13315;48.274;-1.900;2023-03-14T01:08:16;6.50;;;2.75;;
25365;SDS011;13315;48.274;-1.900;2023-03-14T01:10:43;7.40;;;3.33;;
25365;SDS011;13315;48.274;-1.900;2023-03-14T01:13:09;5.13;;;2.97;;
25365;SDS011;13315;48.274;-1.900;2023-03-14T01:15:35;3.33;;;3.03;;
25365;SDS011;13315;48.274;-1.900;2023-03-14T01:18:02;7.47;;;3.45;;
25365;SDS011;13315;48.274;-1.900;2023-03-14T01:20:28;12.93;;;3.50;;
25365;SDS011;13315;48.274;-1.900;2023-03-14T01:22:54;6.53;;;3.05;;
25365;SDS011;13315;48.274;-1.900;2023-03-14T01:25:20;9.73;;;3.60;;
25365;SDS011;13315;48.274;-1.900;2023-03-14T01:27:46;9.60;;;3.13;;
25365;SDS011;13315;48.274;-1.900;2023-03-14T01:30:12;3.95;;;2.83;;
25365;SDS011;13315;48.274;-1.900;2023-03-14T01:32:39;14.88;;;3.05;;
25365;SDS011;13315;48.274;-1.900;2023-03-14T01:35:05;8.10;;;3.35;;
25365;SDS011;13315;48.274;-1.900;2023-03-14T01:37:31;15.15;;;3.65;;
25365;SDS011;13315;48.274;-1.900;2023-03-14T01:39:57;8.00;;;2.60;;
25365;SDS011;13315;48.274;-1.900;2023-03-14T01:42:23;7.88;;;3.00;;
25365;SDS011;13315;48.274;-1.900;2023-03-14T01:44:53;11.75;;;3.53;;
25365;SDS011;13315;48.274;-1.900;2023-03-14T01:47:19;9.82;;;3.13;;
25365;SDS011;13315;48.274;-1.900;2023-03-14T01:49:59;11.85;;;3.10;;
25365;SDS011;13315;48.274;-1.900;2023-03-14T01:52:29;11.65;;;3.95;;
25365;SDS011;13315;48.274;-1.900;2023-03-14T01:54:59;9.05;;;3.30;;
25365;SDS011;13315;48.274;-1.900;2023-03-14T01:57:30;11.90;;;3.35;;
25365;SDS011;13315;48.274;-1.900;2023-03-14T01:59:58;11.55;;;3.42;;
25365;SDS011;13315;48.274;-1.900;2023-03-14T02:02:25;8.88;;;3.35;;
25365;SDS011;13315;48.274;-1.900;2023-03-14T02:04:52;9.68;;;3.60;;
25365;SDS011;13315;48.274;-1.900;2023-03-14T02:07:45;6.53;;;3.97;;
25365;SDS011;13315;48.274;-1.900;2023-03-14T02:10:05;10.68;;;3.85;;
25365;SDS011;13315;48.274;-1.900;2023-03-14T02:12:31;7.15;;;3.17;;
25365;SDS011;13315;48.274;-1.900;2023-03-14T02:14:58;12.20;;;3.40;;
25365;SDS011;13315;48.274;-1.900;2023-03-14T02:17:24;12.93;;;4.28;;
25365;SDS011;13315;48.274;-1.900;2023-03-14T02:27:12;7.88;;;2.90;;
25365;SDS011;13315;48.274;-1.900;2023-03-14T02:29:49;5.53;;;2.80;;
25365;SDS011;13315;48.274;-1.900;2023-03-14T02:32:16;7.45;;;3.40;;
25365;SDS011;13315;48.274;-1.900;2023-03-14T02:34:43;5.82;;;2.90;;
25365;SDS011;13315;48.274;-1.900;2023-03-14T02:37:10;7.93;;;3.13;;
25365;SDS011;13315;48.274;-1.900;2023-03-14T02:39:38;8.63;;;2.60;;
25365;SDS011;13315;48.274;-1.900;2023-03-14T02:42:05;6.73;;;2.43;;
25365;SDS011;13315;48.274;-1.900;2023-03-14T02:44:32;9.35;;;3.60;;
25365;SDS011;13315;48.274;-1.900;2023-03-14T02:46:58;6.20;;;2.85;;
25365;SDS011;13315;48.274;-1.900;2023-03-14T02:49:24;7.78;;;2.95;;
25365;SDS011;13315;48.274;-1.900;2023-03-14T02:51:51;7.75;;;2.63;;
25365;SDS011;13315;48.274;-1.900;2023-03-14T02:54:17;6.75;;;2.72;;
25365;SDS011;13315;48.274;-1.900;2023-03-14T02:56:44;11.98;;;2.63;;
25365;SDS011;13315;48.274;-1.900;2023-03-14T02:59:10;4.13;;;2.45;;
25365;SDS011;13315;48.274;-1.900;2023-03-14T03:01:36;5.93;;;2.53;;
25365;SDS011;13315;48.274;-1.900;2023-03-14T03:04:02;9.98;;;2.65;;
25365;SDS011;13315;48.274;-1.900;2023-03-14T03:06:28;4.30;;;3.00;;
25365;SDS011;13315;48.274;-1.900;2023-03-14T03:08:54;3.08;;;2.78;;
25365;SDS011;13315;48.274;-1.900;2023-03-14T03:11:20;3.53;;;2.50;;
25365;SDS011;13315;48.274;-1.900;2023-03-14T03:13:46;6.07;;;2.90;;
25365;SDS011;13315;48.274;-1.900;2023-03-14T03:16:12;4.82;;;2.72;;
25365;SDS011;13315;48.274;-1.900;2023-03-14T03:18:40;6.03;;;2.53;;
25365;SDS011;13315;48.274;-1.900;2023-03-14T03:21:06;3.85;;;2.83;;
25365;SDS011;13315;48.274;-1.900;2023-03-14T03:23:33;7.20;;;2.72;;
25365;SDS011;13315;48.274;-1.900;2023-03-14T03:26:00;6.78;;;2.80;;
25365;SDS011;13315;48.274;-1.900;2023-03-14T03:28:27;8.05;;;2.60;;
25365;SDS011;13315;48.274;-1.900;2023-03-14T03:30:53;12.10;;;2.95;;
25365;SDS011;13315;48.274;-1.900;2023-03-14T03:33:19;9.23;;;2.40;;
25365;SDS011;13315;48.274;-1.900;2023-03-14T03:35:50;4.93;;;2.80;;
25365;SDS011;13315;48.274;-1.900;2023-03-14T03:38:17;9.18;;;2.90;;
25365;SDS011;13315;48.274;-1.900;2023-03-14T03:40:45;7.73;;;2.43;;
25365;SDS011;13315;48.274;-1.900;2023-03-14T03:43:11;5.82;;;3.42;;
25365;SDS011;13315;48.274;-1.900;2023-03-14T03:45:37;5.90;;;2.45;;
25365;SDS011;13315;48.274;-1.900;2023-03-14T03:48:03;6.63;;;3.15;;
25365;SDS011;13315;48.274;-1.900;2023-03-14T03:50:29;7.65;;;2.97;;
25365;SDS011;13315;48.274;-1.900;2023-03-14T03:52:55;5.88;;;2.97;;
25365;SDS011;13315;48.274;-1.900;2023-03-14T03:55:21;9.95;;;2.80;;
25365;SDS011;13315;48.274;-1.900;2023-03-14T03:57:47;8.48;;;2.83;;
25365;SDS011;13315;48.274;-1.900;2023-03-14T04:00:13;5.97;;;2.83;;
25365;SDS011;13315;48.274;-1.900;2023-03-14T04:02:39;5.80;;;2.55;;
25365;SDS011;13315;48.274;-1.900;2023-03-14T04:05:06;5.82;;;2.60;;
25365;SDS011;13315;48.274;-1.900;2023-03-14T04:07:32;9.48;;;2.80;;
25365;SDS011;13315;48.274;-1.900;2023-03-14T04:09:58;5.63;;;3.05;;
25365;SDS011;13315;48.274;-1.900;2023-03-14T04:12:24;4.50;;;2.55;;
25365;SDS011;13315;48.274;-1.900;2023-03-14T04:14:50;5.50;;;2.45;;
25365;SDS011;13315;48.274;-1.900;2023-03-14T04:17:16;5.65;;;2.80;;
25365;SDS011;13315;48.274;-1.900;2023-03-14T04:19:42;11.13;;;3.33;;
25365;SDS011;13315;48.274;-1.900;2023-03-14T04:22:08;10.10;;;3.40;;
25365;SDS011;13315;48.274;-1.900;2023-03-14T04:24:35;12.80;;;3.45;;
25365;SDS011;13315;48.274;-1.900;2023-03-14T04:27:01;9.05;;;3.53;;
25365;SDS011;13315;48.274;-1.900;2023-03-14T04:29:27;8.18;;;3.90;;
25365;SDS011;13315;48.274;-1.900;2023-03-14T04:31:53;9.73;;;3.90;;
25365;SDS011;13315;48.274;-1.900;2023-03-14T04:34:19;11.25;;;4.68;;
25365;SDS011;13315;48.274;-1.900;2023-03-14T04:36:45;11.43;;;3.50;;
25365;SDS011;13315;48.274;-1.900;2023-03-14T04:39:11;10.90;;;3.40;;
25365;SDS011;13315;48.274;-1.900;2023-03-14T04:41:37;7.13;;;3.60;;
25365;SDS011;13315;48.274;-1.900;2023-03-14T04:44:03;8.63;;;3.55;;
25365;SDS011;13315;48.274;-1.900;2023-03-14T04:46:29;14.10;;;4.10;;
25365;SDS011;13315;48.274;-1.900;2023-03-14T04:48:55;16.73;;;4.28;;
25365;SDS011;13315;48.274;-1.900;2023-03-14T04:51:22;11.23;;;3.70;;
25365;SDS011;13315;48.274;-1.900;2023-03-14T04:53:50;9.57;;;4.28;;
25365;SDS011;13315;48.274;-1.900;2023-03-14T04:56:16;14.07;;;4.07;;
25365;SDS011;13315;48.274;-1.900;2023-03-14T04:58:42;12.63;;;3.90;;
25365;SDS011;13315;48.274;-1.900;2023-03-14T05:01:09;13.65;;;3.38;;
25365;SDS011;13315;48.274;-1.900;2023-03-14T05:03:35;5.50;;;3.20;;
25365;SDS011;13315;48.274;-1.900;2023-03-14T05:06:03;9.43;;;3.55;;
25365;SDS011;13315;48.274;-1.900;2023-03-14T05:08:29;11.32;;;3.80;;
25365;SDS011;13315;48.274;-1.900;2023-03-14T05:10:55;7.22;;;4.47;;
25365;SDS011;13315;48.274;-1.900;2023-03-14T05:13:22;6.38;;;3.47;;
25365;SDS011;13315;48.274;-1.900;2023-03-14T05:15:48;10.43;;;3.72;;
25365;SDS011;13315;48.274;-1.900;2023-03-14T05:18:15;14.57;;;3.60;;
25365;SDS011;13315;48.274;-1.900;2023-03-14T05:20:41;10.00;;;3.58;;
25365;SDS011;13315;48.274;-1.900;2023-03-14T05:23:11;6.88;;;3.60;;
25365;SDS011;13315;48.274;-1.900;2023-03-14T05:25:37;18.67;;;3.50;;
25365;SDS011;13315;48.274;-1.900;2023-03-14T05:28:03;12.13;;;3.53;;
25365;SDS011;13315;48.274;-1.900;2023-03-14T05:30:29;9.25;;;3.67;;
25365;SDS011;13315;48.274;-1.900;2023-03-14T05:32:55;9.57;;;3.17;;
25365;SDS011;13315;48.274;-1.900;2023-03-14T05:35:22;14.15;;;4.07;;
25365;SDS011;13315;48.274;-1.900;2023-03-14T05:37:48;9.07;;;4.20;;
25365;SDS011;13315;48.274;-1.900;2023-03-14T05:40:14;13.30;;;3.72;;
25365;SDS011;13315;48.274;-1.900;2023-03-14T05:42:40;11.77;;;3.50;;
25365;SDS011;13315;48.274;-1.900;2023-03-14T05:45:06;11.88;;;3.88;;
25365;SDS011;13315;48.274;-1.900;2023-03-14T05:47:32;8.90;;;3.03;;
25365;SDS011;13315;48.274;-1.900;2023-03-14T05:49:58;14.70;;;3.05;;
25365;SDS011;13315;48.274;-1.900;2023-03-14T05:52:24;14.43;;;2.83;;
25365;SDS011;13315;48.274;-1.900;2023-03-14T05:54:50;5.13;;;3.40;;
25365;SDS011;13315;48.274;-1.900;2023-03-14T05:57:16;12.32;;;3.55;;
25365;SDS011;13315;48.274;-1.900;2023-03-14T05:59:42;5.13;;;2.50;;
25365;SDS011;13315;48.274;-1.900;2023-03-14T06:02:09;10.43;;;2.45;;
25365;SDS011;13315;48.274;-1.900;2023-03-14T06:04:35;7.53;;;3.10;;
25365;SDS011;13315;48.274;-1.900;2023-03-14T06:07:01;8.07;;;2.90;;
25365;SDS011;13315;48.274;-1.900;2023-03-14T06:09:27;6.13;;;2.50;;
25365;SDS011;13315;48.274;-1.900;2023-03-14T06:11:53;10.65;;;2.95;;
25365;SDS011;13315;48.274;-1.900;2023-03-14T06:14:19;7.50;;;2.83;;
25365;SDS011;13315;48.274;-1.900;2023-03-14T06:16:45;10.68;;;2.83;;
25365;SDS011;13315;48.274;-1.900;2023-03-14T06:19:13;8.88;;;3.22;;
25365;SDS011;13315;48.274;-1.900;2023-03-14T06:21:39;3.55;;;2.08;;
25365;SDS011;13315;48.274;-1.900;2023-03-14T06:24:05;8.68;;;2.65;;
25365;SDS011;13315;48.274;-1.900;2023-03-14T06:26:31;10.02;;;2.80;;
25365;SDS011;13315;48.274;-1.900;2023-03-14T06:28:57;9.82;;;2.60;;
25365;SDS011;13315;48.274;-1.900;2023-03-14T06:31:28;6.40;;;2.30;;
25365;SDS011;13315;48.274;-1.900;2023-03-14T06:33:54;5.15;;;2.00;;
25365;SDS011;13315;48.274;-1.900;2023-03-14T06:36:20;15.52;;;2.70;;
25365;SDS011;13315;48.274;-1.900;2023-03-14T06:38:46;6.88;;;2.28;;
25365;SDS011;13315;48.274;-1.900;2023-03-14T06:41:12;5.65;;;2.50;;
25365;SDS011;13315;48.274;-1.900;2023-03-14T06:43:38;7.03;;;2.60;;
25365;SDS011;13315;48.274;-1.900;2023-03-14T06:46:04;3.90;;;2.40;;
25365;SDS011;13315;48.274;-1.900;2023-03-14T06:48:30;9.38;;;2.75;;
25365;SDS011;13315;48.274;-1.900;2023-03-14T06:50:56;4.35;;;2.42;;
25365;SDS011;13315;48.274;-1.900;2023-03-14T06:53:23;4.40;;;2.78;;
25365;SDS011;13315;48.274;-1.900;2023-03-14T06:55:49;8.68;;;2.50;;
25365;SDS011;13315;48.274;-1.900;2023-03-14T06:58:15;6.65;;;2.50;;
25365;SDS011;13315;48.274;-1.900;2023-03-14T07:00:41;9.23;;;2.60;;
25365;SDS011;13315;48.274;-1.900;2023-03-14T07:03:07;4.95;;;2.38;;
25365;SDS011;13315;48.274;-1.900;2023-03-14T07:05:33;8.23;;;2.35;;
25365;SDS011;13315;48.274;-1.900;2023-03-14T07:07:59;7.68;;;2.85;;
25365;SDS011;13315;48.274;-1.900;2023-03-14T07:10:25;11.52;;;2.90;;
25365;SDS011;13315;48.274;-1.900;2023-03-14T07:12:51;9.10;;;2.70;;
25365;SDS011;13315;48.274;-1.900;2023-03-14T07:15:18;4.60;;;2.42;;
25365;SDS011;13315;48.274;-1.900;2023-03-14T07:17:45;5.32;;;2.45;;
25365;SDS011;13315;48.274;-1.900;2023-03-14T07:20:13;8.85;;;2.63;;
25365;SDS011;13315;48.274;-1.900;2023-03-14T07:22:39;8.02;;;2.53;;
25365;SDS011;13315;48.274;-1.900;2023-03-14T07:25:05;7.72;;;2.80;;
25365;SDS011;13315;48.274;-1.900;2023-03-14T07:27:31;6.13;;;2.65;;
25365;SDS011;13315;48.274;-1.900;2023-03-14T07:29:57;8.57;;;2.72;;
25365;SDS011;13315;48.274;-1.900;2023-03-14T07:32:23;9.75;;;2.85;;
25365;SDS011;13315;48.274;-1.900;2023-03-14T07:34:49;13.48;;;3.55;;
25365;SDS011;13315;48.274;-1.900;2023-03-14T07:37:15;5.93;;;3.15;;
25365;SDS011;13315;48.274;-1.900;2023-03-14T07:39:41;12.35;;;3.38;;
25365;SDS011;13315;48.274;-1.900;2023-03-14T07:42:07;5.97;;;2.67;;
25365;SDS011;13315;48.274;-1.900;2023-03-14T07:44:33;10.13;;;2.72;;
25365;SDS011;13315;48.274;-1.900;2023-03-14T07:47:00;10.80;;;2.67;;
25365;SDS011;13315;48.274;-1.900;2023-03-14T07:49:26;7.57;;;2.47;;
25365;SDS011;13315;48.274;-1.900;2023-03-14T07:51:52;11.50;;;3.03;;
25365;SDS011;13315;48.274;-1.900;2023-03-14T07:54:18;8.25;;;3.05;;
25365;SDS011;13315;48.274;-1.900;2023-03-14T07:56:44;6.78;;;2.15;;
25365;SDS011;13315;48.274;-1.900;2023-03-14T07:59:10;5.07;;;2.15;;
25365;SDS011;13315;48.274;-1.900;2023-03-14T08:01:37;7.82;;;2.33;;
25365;SDS011;13315;48.274;-1.900;2023-03-14T08:04:03;6.93;;;2.05;;
25365;SDS011;13315;48.274;-1.900;2023-03-14T08:06:29;8.52;;;2.30;;
25365;SDS011;13315;48.274;-1.900;2023-03-14T08:08:55;7.53;;;2.08;;
25365;SDS011;13315;48.274;-1.900;2023-03-14T08:11:21;5.78;;;2.45;;
25365;SDS011;13315;48.274;-1.900;2023-03-14T08:13:47;9.25;;;3.03;;
25365;SDS011;13315;48.274;-1.900;2023-03-14T08:16:16;11.80;;;3.93;;
25365;SDS011;13315;48.274;-1.900;2023-03-14T08:18:42;6.75;;;3.00;;
25365;SDS011;13315;48.274;-1.900;2023-03-14T08:21:08;7.47;;;3.42;;
25365;SDS011;13315;48.274;-1.900;2023-03-14T08:23:34;7.90;;;3.05;;
25365;SDS011;13315;48.274;-1.900;2023-03-14T08:26:00;11.35;;;3.10;;
25365;SDS011;13315;48.274;-1.900;2023-03-14T08:28:27;4.38;;;2.42;;
25365;SDS011;13315;48.274;-1.900;2023-03-14T08:30:58;8.05;;;2.85;;
25365;SDS011;13315;48.274;-1.900;2023-03-14T08:33:24;8.27;;;2.80;;
25365;SDS011;13315;48.274;-1.900;2023-03-14T08:35:54;3.28;;;2.33;;
25365;SDS011;13315;48.274;-1.900;2023-03-14T08:38:20;7.40;;;3.00;;
25365;SDS011;13315;48.274;-1.900;2023-03-14T08:40:47;4.15;;;2.55;;
25365;SDS011;13315;48.274;-1.900;2023-03-14T08:43:14;7.75;;;2.45;;
25365;SDS011;13315;48.274;-1.900;2023-03-14T08:45:40;10.63;;;2.90;;
25365;SDS011;13315;48.274;-1.900;2023-03-14T08:48:06;3.88;;;2.42;;
25365;SDS011;13315;48.274;-1.900;2023-03-14T08:50:32;5.57;;;2.72;;
25365;SDS011;13315;48.274;-1.900;2023-03-14T08:52:58;8.20;;;2.60;;
25365;SDS011;13315;48.274;-1.900;2023-03-14T08:55:26;6.43;;;2.70;;
25365;SDS011;13315;48.274;-1.900;2023-03-14T08:57:52;4.65;;;2.63;;
25365;SDS011;13315;48.274;-1.900;2023-03-14T09:00:19;6.13;;;3.00;;
25365;SDS011;13315;48.274;-1.900;2023-03-14T09:02:45;5.75;;;2.80;;
25365;SDS011;13315;48.274;-1.900;2023-03-14T09:05:12;6.88;;;2.83;;
25365;SDS011;13315;48.274;-1.900;2023-03-14T09:07:38;5.03;;;2.65;;
25365;SDS011;13315;48.274;-1.900;2023-03-14T09:10:05;8.25;;;2.25;;
25365;SDS011;13315;48.274;-1.900;2023-03-14T09:12:32;3.65;;;2.58;;
25365;SDS011;13315;48.274;-1.900;2023-03-14T09:14:58;13.20;;;3.13;;
25365;SDS011;13315;48.274;-1.900;2023-03-14T09:17:24;6.28;;;2.00;;
25365;SDS011;13315;48.274;-1.900;2023-03-14T09:19:50;9.88;;;2.97;;
25365;SDS011;13315;48.274;-1.900;2023-03-14T09:22:16;8.30;;;2.30;;
25365;SDS011;13315;48.274;-1.900;2023-03-14T09:24:42;8.93;;;2.40;;
25365;SDS011;13315;48.274;-1.900;2023-03-14T09:27:08;5.25;;;2.35;;
25365;SDS011;13315;48.274;-1.900;2023-03-14T09:29:34;8.35;;;2.45;;
25365;SDS011;13315;48.274;-1.900;2023-03-14T09:32:00;8.98;;;2.78;;
25365;SDS011;13315;48.274;-1.900;2023-03-14T09:34:26;5.38;;;2.40;;
25365;SDS011;13315;48.274;-1.900;2023-03-14T09:36:52;9.80;;;2.67;;
25365;SDS011;13315;48.274;-1.900;2023-03-14T09:39:19;3.83;;;2.40;;
25365;SDS011;13315;48.274;-1.900;2023-03-14T09:41:46;4.50;;;2.05;;
25365;SDS011;13315;48.274;-1.900;2023-03-14T09:46:39;5.78;;;2.13;;
25365;SDS011;13315;48.274;-1.900;2023-03-14T09:49:12;9.40;;;2.90;;
25365;SDS011;13315;48.274;-1.900;2023-03-14T09:51:40;7.18;;;3.45;;
25365;SDS011;13315;48.274;-1.900;2023-03-14T09:54:08;4.38;;;2.03;;
25365;SDS011;13315;48.274;-1.900;2023-03-14T09:56:40;4.80;;;2.20;;
25365;SDS011;13315;48.274;-1.900;2023-03-14T09:59:08;8.13;;;2.08;;
25365;SDS011;13315;48.274;-1.900;2023-03-14T10:01:37;6.80;;;2.00;;
25365;SDS011;13315;48.274;-1.900;2023-03-14T10:04:10;23.02;;;2.88;;
25365;SDS011;13315;48.274;-1.900;2023-03-14T10:06:38;5.45;;;2.00;;
25365;SDS011;13315;48.274;-1.900;2023-03-14T10:09:04;10.93;;;2.58;;
25365;SDS011;13315;48.274;-1.900;2023-03-14T10:11:31;9.20;;;2.42;;
25365;SDS011;13315;48.274;-1.900;2023-03-14T10:16:45;4.68;;;2.10;;
25365;SDS011;13315;48.274;-1.900;2023-03-14T10:19:14;9.77;;;2.80;;
25365;SDS011;13315;48.274;-1.900;2023-03-14T10:21:42;7.50;;;2.72;;
25365;SDS011;13315;48.274;-1.900;2023-03-14T10:24:10;4.45;;;1.98;;
25365;SDS011;13315;48.274;-1.900;2023-03-14T10:26:36;4.63;;;2.20;;
25365;SDS011;13315;48.274;-1.900;2023-03-14T10:29:03;3.58;;;2.00;;
25365;SDS011;13315;48.274;-1.900;2023-03-14T10:31:47;6.30;;;2.17;;
25365;SDS011;13315;48.274;-1.900;2023-03-14T10:34:17;4.10;;;1.98;;
25365;SDS011;13315;48.274;-1.900;2023-03-14T10:36:46;6.18;;;2.40;;
25365;SDS011;13315;48.274;-1.900;2023-03-14T10:41:47;9.40;;;2.28;;
25365;SDS011;13315;48.274;-1.900;2023-03-14T10:44:13;7.55;;;2.17;;
25365;SDS011;13315;48.274;-1.900;2023-03-14T10:46:40;7.72;;;2.33;;
25365;SDS011;13315;48.274;-1.900;2023-03-14T10:49:06;4.60;;;1.77;;
25365;SDS011;13315;48.274;-1.900;2023-03-14T10:51:33;6.45;;;2.35;;
25365;SDS011;13315;48.274;-1.900;2023-03-14T10:54:00;7.32;;;2.45;;
25365;SDS011;13315;48.274;-1.900;2023-03-14T10:56:27;7.22;;;2.13;;
25365;SDS011;13315;48.274;-1.900;2023-03-14T10:58:53;10.00;;;2.67;;
25365;SDS011;13315;48.274;-1.900;2023-03-14T11:04:13;5.50;;;2.50;;
25365;SDS011;13315;48.274;-1.900;2023-03-14T11:11:45;4.25;;;2.30;;
25365;SDS011;13315;48.274;-1.900;2023-03-14T11:17:31;13.48;;;2.38;;
25365;SDS011;13315;48.274;-1.900;2023-03-14T11:19:52;9.23;;;2.20;;
25365;SDS011;13315;48.274;-1.900;2023-03-14T11:30:37;7.47;;;2.53;;
25365;SDS011;13315;48.274;-1.900;2023-03-14T11:33:14;10.25;;;2.47;;
25365;SDS011;13315;48.274;-1.900;2023-03-14T11:35:44;6.68;;;2.17;;
25365;SDS011;13315;48.274;-1.900;2023-03-14T11:38:13;5.57;;;2.38;;
25365;SDS011;13315;48.274;-1.900;2023-03-14T11:40:39;8.85;;;2.38;;
25365;SDS011;13315;48.274;-1.900;2023-03-14T11:43:10;5.28;;;2.10;;
25365;SDS011;13315;48.274;-1.900;2023-03-14T11:45:38;9.15;;;2.58;;
25365;SDS011;13315;48.274;-1.900;2023-03-14T11:48:20;7.78;;;2.28;;
25365;SDS011;13315;48.274;-1.900;2023-03-14T11:50:49;4.78;;;1.80;;
25365;SDS011;13315;48.274;-1.900;2023-03-14T11:53:18;5.82;;;2.25;;
25365;SDS011;13315;48.274;-1.900;2023-03-14T11:55:45;9.45;;;2.38;;
25365;SDS011;13315;48.274;-1.900;2023-03-14T12:00:46;10.18;;;2.20;;
25365;SDS011;13315;48.274;-1.900;2023-03-14T12:05:59;5.47;;;2.10;;
25365;SDS011;13315;48.274;-1.900;2023-03-14T12:11:22;9.70;;;1.70;;
25365;SDS011;13315;48.274;-1.900;2023-03-14T12:13:50;5.32;;;1.95;;
25365;SDS011;13315;48.274;-1.900;2023-03-14T12:16:37;5.90;;;2.42;;
25365;SDS011;13315;48.274;-1.900;2023-03-14T12:21:52;3.85;;;1.80;;
25365;SDS011;13315;48.274;-1.900;2023-03-14T12:24:24;3.35;;;1.90;;
25365;SDS011;13315;48.274;-1.900;2023-03-14T12:26:54;9.05;;;2.40;;
25365;SDS011;13315;48.274;-1.900;2023-03-14T12:29:20;6.30;;;2.00;;
25365;SDS011;13315;48.274;-1.900;2023-03-14T12:31:47;3.83;;;1.88;;
25365;SDS011;13315;48.274;-1.900;2023-03-14T12:41:44;5.10;;;2.00;;
25365;SDS011;13315;48.274;-1.900;2023-03-14T12:46:53;6.75;;;1.90;;
25365;SDS011;13315;48.274;-1.900;2023-03-14T12:49:19;4.78;;;1.92;;
25365;SDS011;13315;48.274;-1.900;2023-03-14T12:51:48;2.10;;;1.90;;
25365;SDS011;13315;48.274;-1.900;2023-03-14T13:04:26;7.03;;;1.88;;
25365;SDS011;13315;48.274;-1.900;2023-03-14T13:06:54;3.50;;;1.92;;
25365;SDS011;13315;48.274;-1.900;2023-03-14T13:11:54;10.98;;;2.70;;
25365;SDS011;13315;48.274;-1.900;2023-03-14T13:14:22;7.72;;;2.42;;
25365;SDS011;13315;48.274;-1.900;2023-03-14T13:16:48;6.80;;;2.83;;
25365;SDS011;13315;48.274;-1.900;2023-03-14T13:19:16;16.17;;;2.63;;
25365;SDS011;13315;48.274;-1.900;2023-03-14T13:21:44;7.40;;;3.22;;
25365;SDS011;13315;48.274;-1.900;2023-03-14T13:24:33;5.68;;;2.40;;
25365;SDS011;13315;48.274;-1.900;2023-03-14T13:26:56;10.68;;;3.17;;
25365;SDS011;13315;48.274;-1.900;2023-03-14T13:29:27;9.70;;;2.50;;
25365;SDS011;13315;48.274;-1.900;2023-03-14T13:31:54;4.38;;;1.73;;
25365;SDS011;13315;48.274;-1.900;2023-03-14T13:34:24;4.43;;;1.95;;
25365;SDS011;13315;48.274;-1.900;2023-03-14T13:36:54;7.63;;;2.80;;
25365;SDS011;13315;48.274;-1.900;2023-03-14T13:39:21;6.57;;;2.45;;
25365;SDS011;13315;48.274;-1.900;2023-03-14T13:41:50;2.92;;;2.63;;
25365;SDS011;13315;48.274;-1.900;2023-03-14T13:44:17;5.05;;;1.83;;
25365;SDS011;13315;48.274;-1.900;2023-03-14T13:46:44;3.65;;;1.50;;
25365;SDS011;13315;48.274;-1.900;2023-03-14T13:49:11;5.68;;;1.90;;
25365;SDS011;13315;48.274;-1.900;2023-03-14T13:51:39;5.17;;;1.50;;
25365;SDS011;13315;48.274;-1.900;2023-03-14T13:54:15;8.48;;;2.00;;
25365;SDS011;13315;48.274;-1.900;2023-03-14T13:56:42;5.97;;;1.73;;
25365;SDS011;13315;48.274;-1.900;2023-03-14T13:59:21;5.40;;;1.90;;
25365;SDS011;13315;48.274;-1.900;2023-03-14T14:01:47;3.33;;;1.50;;
25365;SDS011;13315;48.274;-1.900;2023-03-14T14:04:15;6.03;;;1.50;;
25365;SDS011;13315;48.274;-1.900;2023-03-14T14:07:15;2.53;;;1.52;;
25365;SDS011;13315;48.274;-1.900;2023-03-14T14:09:41;4.53;;;1.70;;
25365;SDS011;13315;48.274;-1.900;2023-03-14T14:12:15;5.20;;;2.35;;
25365;SDS011;13315;48.274;-1.900;2023-03-14T14:14:43;6.68;;;2.75;;
25365;SDS011;13315;48.274;-1.900;2023-03-14T14:17:15;3.63;;;1.80;;
25365;SDS011;13315;48.274;-1.900;2023-03-14T14:19:43;4.10;;;2.55;;
25365;SDS011;13315;48.274;-1.900;2023-03-14T14:22:10;3.97;;;1.70;;
25365;SDS011;13315;48.274;-1.900;2023-03-14T14:24:36;4.53;;;1.70;;
25365;SDS011;13315;48.274;-1.900;2023-03-14T14:27:46;2.63;;;1.55;;
25365;SDS011;13315;48.274;-1.900;2023-03-14T14:30:28;8.13;;;2.13;;
25365;SDS011;13315;48.274;-1.900;2023-03-14T14:32:46;3.90;;;1.73;;
25365;SDS011;13315;48.274;-1.900;2023-03-14T14:35:25;3.92;;;1.92;;
25365;SDS011;13315;48.274;-1.900;2023-03-14T14:37:52;2.85;;;2.00;;
25365;SDS011;13315;48.274;-1.900;2023-03-14T14:40:19;5.47;;;1.50;;
25365;SDS011;13315;48.274;-1.900;2023-03-14T14:42:46;3.80;;;1.80;;
25365;SDS011;13315;48.274;-1.900;2023-03-14T14:45:45;4.43;;;1.67;;
25365;SDS011;13315;48.274;-1.900;2023-03-14T14:48:05;5.30;;;1.98;;
25365;SDS011;13315;48.274;-1.900;2023-03-14T14:55:49;9.55;;;2.65;;
25365;SDS011;13315;48.274;-1.900;2023-03-14T14:58:26;3.92;;;1.80;;
25365;SDS011;13315;48.274;-1.900;2023-03-14T15:00:57;2.10;;;1.77;;
25365;SDS011;13315;48.274;-1.900;2023-03-14T15:03:25;5.07;;;2.33;;
25365;SDS011;13315;48.274;-1.900;2023-03-14T15:05:52;5.90;;;1.90;;
25365;SDS011;13315;48.274;-1.900;2023-03-14T15:08:20;2.70;;;1.77;;
25365;SDS011;13315;48.274;-1.900;2023-03-14T15:10:46;3.50;;;1.60;;
25365;SDS011;13315;48.274;-1.900;2023-03-14T15:13:12;3.00;;;1.60;;
25365;SDS011;13315;48.274;-1.900;2023-03-14T15:15:38;4.43;;;1.67;;
25365;SDS011;13315;48.274;-1.900;2023-03-14T15:18:14;1.90;;;1.30;;
25365;SDS011;13315;48.274;-1.900;2023-03-14T15:20:41;5.55;;;1.70;;
25365;SDS011;13315;48.274;-1.900;2023-03-14T15:23:11;4.63;;;1.92;;
25365;SDS011;13315;48.274;-1.900;2023-03-14T15:25:37;2.88;;;1.60;;
25365;SDS011;13315;48.274;-1.900;2023-03-14T15:28:09;3.15;;;1.58;;
25365;SDS011;13315;48.274;-1.900;2023-03-14T15:30:37;3.15;;;1.40;;
25365;SDS011;13315;48.274;-1.900;2023-03-14T15:33:03;3.17;;;1.50;;
25365;SDS011;13315;48.274;-1.900;2023-03-14T15:35:29;2.33;;;1.83;;
25365;SDS011;13315;48.274;-1.900;2023-03-14T15:37:55;5.20;;;1.40;;
25365;SDS011;13315;48.274;-1.900;2023-03-14T15:40:21;1.85;;;1.30;;
25365;SDS011;13315;48.274;-1.900;2023-03-14T15:42:49;4.97;;;1.48;;
25365;SDS011;13315;48.274;-1.900;2023-03-14T15:45:15;4.72;;;1.83;;
25365;SDS011;13315;48.274;-1.900;2023-03-14T15:47:41;6.20;;;1.98;;
25365;SDS011;13315;48.274;-1.900;2023-03-14T15:50:08;7.57;;;2.47;;